PWSweather.com
Personal Weather Stations
Station Observations
RTINEZ
TerrassaES 08226

TerrassaES 08226

Lat: 41.5762194, Lon: 2.028993700000001

Elevation: 367

Station Type: Watson W8681

www.rtinez.cat

High Low Average
Temperature 77.2°F25.1°C 66.4°F19.1°C 69.8°F21.0°C
Dew Point 61.3°F16.3°C 53.2°F11.8°C 57.1°F13.9°C
Winds 9.8 mph 15.8 kmh Calm Calm 4.0 mph SE6.4 kmh SE
Wind Gusts 129.0 mph207.6 kmh 2.2 mph3.5 kmh 13.0 mph20.9 kmh
Humidity 83% 51% 65%
Pressure 30.04 in1017.3 mb 28.70 in971.9 mb -
Precipitation 0.00 in0.0 mm - -
Hour Temp Dew Point Humidity Winds Wind Gusts Pressure Precip Precip Rate Daily Precip Total
12:00 AM 69.1°F20.6°C 60.5°F15.8°C 74% 3.8 mph NE6.1 kmh NE 7.6 mph12.2 kmh 28.71 in972.2 mb 0.00 in0.0 mm 0.00 in0.0 mm 0.00 in0.0 mm
12:15 AM 69.3°F20.7°C 59.5°F15.3°C 71% 1.6 mph NE2.6 kmh NE 9.2 mph14.8 kmh 29.93 in1013.5 mb 0.00 in0.0 mm 0.00 in0.0 mm 0.00 in0.0 mm
12:30 AM 69.3°F20.7°C 58.7°F14.8°C 69% 5.4 mph NE8.7 kmh NE 7.6 mph12.2 kmh 29.93 in1013.5 mb 0.00 in0.0 mm 0.00 in0.0 mm 0.00 in0.0 mm
12:45 AM 69.4°F20.8°C 56.8°F13.8°C 64% 3.8 mph NE6.1 kmh NE 8.3 mph13.4 kmh 28.70 in971.9 mb 0.00 in0.0 mm 0.00 in0.0 mm 0.00 in0.0 mm
01:00 AM 69.6°F20.9°C 56.0°F13.3°C 62% 1.6 mph NE2.6 kmh NE 6.9 mph11.1 kmh 29.93 in1013.5 mb 0.00 in0.0 mm 0.00 in0.0 mm 0.00 in0.0 mm
01:15 AM 69.4°F20.8°C 55.0°F12.8°C 60% 3.8 mph NE6.1 kmh NE 7.6 mph12.2 kmh 29.93 in1013.5 mb 0.00 in0.0 mm 0.00 in0.0 mm 0.00 in0.0 mm
01:30 AM 69.3°F20.7°C 54.8°F12.7°C 60% 4.5 mph ENE7.2 kmh ENE 7.6 mph12.2 kmh 29.92 in1013.2 mb 0.00 in0.0 mm 0.00 in0.0 mm 0.00 in0.0 mm
01:45 AM 69.3°F20.7°C 54.3°F12.4°C 59% 4.5 mph NE7.2 kmh NE 8.3 mph13.4 kmh 29.93 in1013.5 mb 0.00 in0.0 mm 0.00 in0.0 mm 0.00 in0.0 mm
02:00 AM 69.3°F20.7°C 53.9°F12.2°C 58% 3.8 mph NE6.1 kmh NE 129.0 mph207.6 kmh 28.70 in971.9 mb 0.00 in0.0 mm 0.00 in0.0 mm 0.00 in0.0 mm
02:15 AM 69.4°F20.8°C 54.0°F12.2°C 58% 0.7 mph ENE1.1 kmh ENE 5.4 mph8.7 kmh 29.92 in1013.2 mb 0.00 in0.0 mm 0.00 in0.0 mm 0.00 in0.0 mm
02:30 AM 69.3°F20.7°C 53.9°F12.2°C 58% 0.7 mph ENE1.1 kmh ENE 3.8 mph6.1 kmh 28.70 in971.9 mb 0.00 in0.0 mm 0.00 in0.0 mm 0.00 in0.0 mm
02:45 AM 69.4°F20.8°C 54.0°F12.2°C 58% 1.6 mph ESE2.6 kmh ESE 2.2 mph3.5 kmh 28.70 in971.9 mb 0.00 in0.0 mm 0.00 in0.0 mm 0.00 in0.0 mm
03:00 AM 69.3°F20.7°C 54.8°F12.7°C 60% 2.2 mph ESE3.5 kmh ESE 4.5 mph7.2 kmh 28.70 in971.9 mb 0.00 in0.0 mm 0.00 in0.0 mm 0.00 in0.0 mm
03:15 AM 69.1°F20.6°C 54.2°F12.3°C 59% 3.8 mph ESE6.1 kmh ESE 5.4 mph8.7 kmh 29.92 in1013.2 mb 0.00 in0.0 mm 0.00 in0.0 mm 0.00 in0.0 mm
03:30 AM 69.4°F20.8°C 53.6°F12.0°C 57% 3.8 mph ESE6.1 kmh ESE 7.6 mph12.2 kmh 28.70 in971.9 mb 0.00 in0.0 mm 0.00 in0.0 mm 0.00 in0.0 mm
03:45 AM 69.1°F20.6°C 53.2°F11.8°C 57% 2.2 mph E3.5 kmh E 7.6 mph12.2 kmh 29.91 in1012.9 mb 0.00 in0.0 mm 0.00 in0.0 mm 0.00 in0.0 mm
04:00 AM 68.7°F20.4°C 53.4°F11.9°C 58% 3.1 mph NNE5.0 kmh NNE 5.4 mph8.7 kmh 28.70 in971.9 mb 0.00 in0.0 mm 0.00 in0.0 mm 0.00 in0.0 mm
04:15 AM 69.4°F20.8°C 54.0°F12.2°C 58% 4.5 mph ESE7.2 kmh ESE 11.4 mph18.3 kmh 29.92 in1013.2 mb 0.00 in0.0 mm 0.00 in0.0 mm 0.00 in0.0 mm
04:30 AM 69.3°F20.7°C 53.9°F12.2°C 58% 3.8 mph NE6.1 kmh NE 6.9 mph11.1 kmh 29.91 in1012.9 mb 0.00 in0.0 mm 0.00 in0.0 mm 0.00 in0.0 mm
04:45 AM 69.4°F20.8°C 54.0°F12.2°C 58% 4.5 mph ENE7.2 kmh ENE 9.8 mph15.8 kmh 28.70 in971.9 mb 0.00 in0.0 mm 0.00 in0.0 mm 0.00 in0.0 mm
05:00 AM 68.9°F20.5°C 54.0°F12.2°C 59% 5.4 mph ESE8.7 kmh ESE 11.4 mph18.3 kmh 29.92 in1013.2 mb 0.00 in0.0 mm 0.00 in0.0 mm 0.00 in0.0 mm
05:15 AM 68.2°F20.1°C 54.2°F12.3°C 61% 3.8 mph E6.1 kmh E 11.4 mph18.3 kmh 29.92 in1013.2 mb 0.00 in0.0 mm 0.00 in0.0 mm 0.00 in0.0 mm
05:30 AM 67.8°F19.9°C 54.8°F12.7°C 63% 2.2 mph NE3.5 kmh NE 6.9 mph11.1 kmh 28.70 in971.9 mb 0.00 in0.0 mm 0.00 in0.0 mm 0.00 in0.0 mm
05:45 AM 67.5°F19.7°C 54.4°F12.4°C 63% Calm Calm 6.9 mph11.1 kmh 29.93 in1013.5 mb 0.00 in0.0 mm 0.00 in0.0 mm 0.00 in0.0 mm
06:00 AM 66.9°F19.4°C 54.4°F12.4°C 64% 1.6 mph E2.6 kmh E 6.0 mph9.7 kmh 28.70 in971.9 mb 0.00 in0.0 mm 0.00 in0.0 mm 0.00 in0.0 mm
06:15 AM 66.6°F19.2°C 54.9°F12.7°C 66% 3.1 mph NE5.0 kmh NE 6.9 mph11.1 kmh 29.93 in1013.5 mb 0.00 in0.0 mm 0.00 in0.0 mm 0.00 in0.0 mm
06:30 AM 66.6°F19.2°C 54.9°F12.7°C 66% 2.2 mph NE3.5 kmh NE 9.2 mph14.8 kmh 28.70 in971.9 mb 0.00 in0.0 mm 0.00 in0.0 mm 0.00 in0.0 mm
06:45 AM 66.6°F19.2°C 55.3°F12.9°C 67% 2.2 mph ENE3.5 kmh ENE 5.4 mph8.7 kmh 28.71 in972.2 mb 0.00 in0.0 mm 0.00 in0.0 mm 0.00 in0.0 mm
07:00 AM 66.4°F19.1°C 55.9°F13.3°C 69% 0.7 mph NE1.1 kmh NE 6.0 mph9.7 kmh 28.71 in972.2 mb 0.00 in0.0 mm 0.00 in0.0 mm 0.00 in0.0 mm
07:15 AM 66.7°F19.3°C 56.3°F13.5°C 69% 2.2 mph ENE3.5 kmh ENE 3.8 mph6.1 kmh 29.93 in1013.5 mb 0.00 in0.0 mm 0.00 in0.0 mm 0.00 in0.0 mm
07:30 AM 68.0°F20.0°C 56.7°F13.7°C 67% 2.2 mph ENE3.5 kmh ENE 4.5 mph7.2 kmh 29.93 in1013.5 mb 0.00 in0.0 mm 0.00 in0.0 mm 0.00 in0.0 mm
07:45 AM 67.8°F19.9°C 56.9°F13.8°C 68% 4.5 mph NE7.2 kmh NE 115.0 mph185.1 kmh 28.71 in972.2 mb 0.00 in0.0 mm 0.00 in0.0 mm 0.00 in0.0 mm
08:00 AM 70.0°F21.1°C 56.8°F13.8°C 63% 2.2 mph N3.5 kmh N 5.4 mph8.7 kmh 28.73 in972.9 mb 0.00 in0.0 mm 0.00 in0.0 mm 0.00 in0.0 mm
08:15 AM 70.5°F21.4°C 56.4°F13.6°C 61% 2.2 mph N3.5 kmh N 3.8 mph6.1 kmh 29.96 in1014.6 mb 0.00 in0.0 mm 0.00 in0.0 mm 0.00 in0.0 mm
08:30 AM 71.4°F21.9°C 56.8°F13.8°C 60% 0.7 mph NE1.1 kmh NE 2.2 mph3.5 kmh 28.74 in973.2 mb 0.00 in0.0 mm 0.00 in0.0 mm 0.00 in0.0 mm
08:45 AM 72.3°F22.4°C 56.7°F13.7°C 58% 2.2 mph E3.5 kmh E 122.0 mph196.3 kmh 29.97 in1014.9 mb 0.00 in0.0 mm 0.00 in0.0 mm 0.00 in0.0 mm
09:00 AM 72.5°F22.5°C 55.9°F13.3°C 56% 3.1 mph S5.0 kmh S 6.0 mph9.7 kmh 28.75 in973.6 mb 0.00 in0.0 mm 0.00 in0.0 mm 0.00 in0.0 mm
09:15 AM 72.9°F22.7°C 54.8°F12.7°C 53% 3.8 mph SW6.1 kmh SW 6.9 mph11.1 kmh 28.75 in973.6 mb 0.00 in0.0 mm 0.00 in0.0 mm 0.00 in0.0 mm
09:30 AM 77.2°F25.1°C 57.7°F14.3°C 51% 3.8 mph SW6.1 kmh SW 5.4 mph8.7 kmh 29.98 in1015.2 mb 0.00 in0.0 mm 0.00 in0.0 mm 0.00 in0.0 mm
09:45 AM 73.0°F22.8°C 56.4°F13.6°C 56% 3.1 mph SW5.0 kmh SW 6.9 mph11.1 kmh 28.76 in973.9 mb 0.00 in0.0 mm 0.00 in0.0 mm 0.00 in0.0 mm
10:00 AM 73.4°F23.0°C 56.8°F13.8°C 56% 3.1 mph S5.0 kmh S 6.0 mph9.7 kmh 28.76 in973.9 mb 0.00 in0.0 mm 0.00 in0.0 mm 0.00 in0.0 mm
10:15 AM 73.9°F23.3°C 56.8°F13.8°C 55% 0.7 mph S1.1 kmh S 6.9 mph11.1 kmh 28.77 in974.3 mb 0.00 in0.0 mm 0.00 in0.0 mm 0.00 in0.0 mm
10:30 AM 75.7°F24.3°C 56.9°F13.8°C 52% 3.1 mph S5.0 kmh S 5.4 mph8.7 kmh 28.77 in974.3 mb 0.00 in0.0 mm 0.00 in0.0 mm 0.00 in0.0 mm
10:45 AM 72.7°F22.6°C 57.6°F14.2°C 59% 5.4 mph S8.7 kmh S 10.7 mph17.2 kmh 28.77 in974.3 mb 0.00 in0.0 mm 0.00 in0.0 mm 0.00 in0.0 mm
11:00 AM 72.7°F22.6°C 56.6°F13.7°C 57% 6.9 mph S11.1 kmh S 12.1 mph19.5 kmh 29.99 in1015.6 mb 0.00 in0.0 mm 0.00 in0.0 mm 0.00 in0.0 mm
11:15 AM 73.0°F22.8°C 57.4°F14.1°C 58% 5.4 mph SE8.7 kmh SE 9.8 mph15.8 kmh 28.77 in974.3 mb 0.00 in0.0 mm 0.00 in0.0 mm 0.00 in0.0 mm
11:30 AM 74.1°F23.4°C 58.4°F14.7°C 58% 3.1 mph SSW5.0 kmh SSW 9.8 mph15.8 kmh 29.98 in1015.2 mb 0.00 in0.0 mm 0.00 in0.0 mm 0.00 in0.0 mm
11:45 AM 73.6°F23.1°C 58.4°F14.7°C 59% 6.9 mph SSW11.1 kmh SSW 8.3 mph13.4 kmh 29.98 in1015.2 mb 0.00 in0.0 mm 0.00 in0.0 mm 0.00 in0.0 mm
12:00 PM 74.1°F23.4°C 58.4°F14.7°C 58% 3.1 mph S5.0 kmh S 11.4 mph18.3 kmh 28.76 in973.9 mb 0.00 in0.0 mm 0.00 in0.0 mm 0.00 in0.0 mm
12:15 PM 73.2°F22.9°C 56.6°F13.7°C 56% 3.1 mph S5.0 kmh S 9.8 mph15.8 kmh 29.98 in1015.2 mb 0.00 in0.0 mm 0.00 in0.0 mm 0.00 in0.0 mm
12:30 PM 74.1°F23.4°C 56.4°F13.6°C 54% 6.9 mph S11.1 kmh S 10.7 mph17.2 kmh 29.98 in1015.2 mb 0.00 in0.0 mm 0.00 in0.0 mm 0.00 in0.0 mm
12:45 PM 73.9°F23.3°C 55.8°F13.2°C 53% 6.9 mph S11.1 kmh S 13.6 mph21.9 kmh 28.75 in973.6 mb 0.00 in0.0 mm 0.00 in0.0 mm 0.00 in0.0 mm
01:00 PM 74.7°F23.7°C 55.4°F13.0°C 51% 5.4 mph SSW8.7 kmh SSW 14.5 mph23.3 kmh 28.75 in973.6 mb 0.00 in0.0 mm 0.00 in0.0 mm 0.00 in0.0 mm
01:15 PM 74.1°F23.4°C 55.4°F13.0°C 52% 6.9 mph S11.1 kmh S 13.0 mph20.9 kmh 29.96 in1014.6 mb 0.00 in0.0 mm 0.00 in0.0 mm 0.00 in0.0 mm
01:30 PM 73.9°F23.3°C 55.8°F13.2°C 53% 7.6 mph SSE12.2 kmh SSE 13.6 mph21.9 kmh 28.74 in973.2 mb 0.00 in0.0 mm 0.00 in0.0 mm 0.00 in0.0 mm
01:45 PM 72.1°F22.3°C 55.1°F12.8°C 55% 7.6 mph SE12.2 kmh SE 16.8 mph27.0 kmh 28.74 in973.2 mb 0.00 in0.0 mm 0.00 in0.0 mm 0.00 in0.0 mm
02:00 PM 72.5°F22.5°C 55.4°F13.0°C 55% 6.0 mph S9.7 kmh S 13.6 mph21.9 kmh 29.96 in1014.6 mb 0.00 in0.0 mm 0.00 in0.0 mm 0.00 in0.0 mm
02:15 PM 72.7°F22.6°C 56.1°F13.4°C 56% 2.2 mph SSE3.5 kmh SSE 12.1 mph19.5 kmh 28.73 in972.9 mb 0.00 in0.0 mm 0.00 in0.0 mm 0.00 in0.0 mm
02:30 PM 72.3°F22.4°C 56.7°F13.7°C 58% 3.8 mph S6.1 kmh S 13.0 mph20.9 kmh 28.73 in972.9 mb 0.00 in0.0 mm 0.00 in0.0 mm 0.00 in0.0 mm
02:45 PM 72.1°F22.3°C 56.6°F13.7°C 58% 3.1 mph SE5.0 kmh SE 10.7 mph17.2 kmh 28.74 in973.2 mb 0.00 in0.0 mm 0.00 in0.0 mm 0.00 in0.0 mm
03:00 PM 72.3°F22.4°C 54.8°F12.7°C 54% 6.9 mph S11.1 kmh S 11.4 mph18.3 kmh 29.95 in1014.2 mb 0.00 in0.0 mm 0.00 in0.0 mm 0.00 in0.0 mm
03:15 PM 72.1°F22.3°C 55.1°F12.8°C 55% 8.3 mph S13.4 kmh S 13.0 mph20.9 kmh 28.73 in972.9 mb 0.00 in0.0 mm 0.00 in0.0 mm 0.00 in0.0 mm
03:30 PM 72.1°F22.3°C 55.1°F12.8°C 55% 5.4 mph S8.7 kmh S 11.4 mph18.3 kmh 29.96 in1014.6 mb 0.00 in0.0 mm 0.00 in0.0 mm 0.00 in0.0 mm
03:45 PM 72.3°F22.4°C 55.3°F12.9°C 55% 6.0 mph S9.7 kmh S 11.4 mph18.3 kmh 28.74 in973.2 mb 0.00 in0.0 mm 0.00 in0.0 mm 0.00 in0.0 mm
04:00 PM 71.6°F22.0°C 56.1°F13.4°C 58% 6.9 mph SE11.1 kmh SE 14.5 mph23.3 kmh 28.74 in973.2 mb 0.00 in0.0 mm 0.00 in0.0 mm 0.00 in0.0 mm
04:15 PM 70.9°F21.6°C 56.8°F13.8°C 61% 6.9 mph ESE11.1 kmh ESE 11.4 mph18.3 kmh 29.95 in1014.2 mb 0.00 in0.0 mm 0.00 in0.0 mm 0.00 in0.0 mm
04:30 PM 70.9°F21.6°C 56.8°F13.8°C 61% 4.5 mph SE7.2 kmh SE 12.1 mph19.5 kmh 28.73 in972.9 mb 0.00 in0.0 mm 0.00 in0.0 mm 0.00 in0.0 mm
04:45 PM 70.5°F21.4°C 56.4°F13.6°C 61% 6.0 mph SE9.7 kmh SE 15.2 mph24.5 kmh 28.74 in973.2 mb 0.00 in0.0 mm 0.00 in0.0 mm 0.00 in0.0 mm
05:00 PM 70.5°F21.4°C 56.4°F13.6°C 61% 7.6 mph SE12.2 kmh SE 11.4 mph18.3 kmh 28.74 in973.2 mb 0.00 in0.0 mm 0.00 in0.0 mm 0.00 in0.0 mm
05:15 PM 69.8°F21.0°C 56.7°F13.7°C 63% 9.8 mph S15.8 kmh S 13.6 mph21.9 kmh 29.97 in1014.9 mb 0.00 in0.0 mm 0.00 in0.0 mm 0.00 in0.0 mm
05:30 PM 69.4°F20.8°C 58.0°F14.4°C 67% 6.0 mph S9.7 kmh S 13.6 mph21.9 kmh 29.98 in1015.2 mb 0.00 in0.0 mm 0.00 in0.0 mm 0.00 in0.0 mm
05:45 PM 69.6°F20.9°C 58.6°F14.8°C 68% 6.0 mph S9.7 kmh S 11.4 mph18.3 kmh 29.98 in1015.2 mb 0.00 in0.0 mm 0.00 in0.0 mm 0.00 in0.0 mm
06:00 PM 68.9°F20.5°C 58.7°F14.8°C 70% 9.2 mph WSW14.8 kmh WSW 14.5 mph23.3 kmh 28.76 in973.9 mb 0.00 in0.0 mm 0.00 in0.0 mm 0.00 in0.0 mm
06:15 PM 68.9°F20.5°C 59.1°F15.1°C 71% 9.2 mph WSW14.8 kmh WSW 11.4 mph18.3 kmh 28.76 in973.9 mb 0.00 in0.0 mm 0.00 in0.0 mm 0.00 in0.0 mm
06:30 PM 68.2°F20.1°C 59.2°F15.1°C 73% 4.5 mph SSW7.2 kmh SSW 10.7 mph17.2 kmh 28.76 in973.9 mb 0.00 in0.0 mm 0.00 in0.0 mm 0.00 in0.0 mm
06:45 PM 67.6°F19.8°C 59.5°F15.3°C 75% 7.6 mph SW12.2 kmh SW 15.9 mph25.6 kmh 28.76 in973.9 mb 0.00 in0.0 mm 0.00 in0.0 mm 0.00 in0.0 mm
07:00 PM 67.6°F19.8°C 60.2°F15.7°C 77% 3.8 mph WSW6.1 kmh WSW 13.0 mph20.9 kmh 29.99 in1015.6 mb 0.00 in0.0 mm 0.00 in0.0 mm 0.00 in0.0 mm
07:15 PM 67.3°F19.6°C 60.2°F15.7°C 78% 8.3 mph S13.4 kmh S 13.0 mph20.9 kmh 28.76 in973.9 mb 0.00 in0.0 mm 0.00 in0.0 mm 0.00 in0.0 mm
07:30 PM 67.3°F19.6°C 60.6°F15.9°C 79% 8.3 mph SW13.4 kmh SW 12.1 mph19.5 kmh 28.77 in974.3 mb 0.00 in0.0 mm 0.00 in0.0 mm 0.00 in0.0 mm
07:45 PM 66.9°F19.4°C 60.6°F15.9°C 80% 4.5 mph SSW7.2 kmh SSW 12.1 mph19.5 kmh 28.78 in974.6 mb 0.00 in0.0 mm 0.00 in0.0 mm 0.00 in0.0 mm
08:00 PM 66.7°F19.3°C 60.4°F15.8°C 80% 4.5 mph SW7.2 kmh SW 11.4 mph18.3 kmh 30.00 in1015.9 mb 0.00 in0.0 mm 0.00 in0.0 mm 0.00 in0.0 mm
08:15 PM 66.7°F19.3°C 60.7°F15.9°C 81% 3.1 mph S5.0 kmh S 10.7 mph17.2 kmh 30.01 in1016.3 mb 0.00 in0.0 mm 0.00 in0.0 mm 0.00 in0.0 mm
08:30 PM 66.6°F19.2°C 60.6°F15.9°C 81% 3.1 mph WSW5.0 kmh WSW 12.1 mph19.5 kmh 30.01 in1016.3 mb 0.00 in0.0 mm 0.00 in0.0 mm 0.00 in0.0 mm
08:45 PM 66.6°F19.2°C 60.6°F15.9°C 81% 6.0 mph SSW9.7 kmh SSW 10.7 mph17.2 kmh 30.01 in1016.3 mb 0.00 in0.0 mm 0.00 in0.0 mm 0.00 in0.0 mm
09:00 PM 66.7°F19.3°C 60.7°F15.9°C 81% 3.8 mph SW6.1 kmh SW 9.8 mph15.8 kmh 30.02 in1016.6 mb 0.00 in0.0 mm 0.00 in0.0 mm 0.00 in0.0 mm
09:15 PM 66.7°F19.3°C 60.7°F15.9°C 81% 4.5 mph SW7.2 kmh SW 9.8 mph15.8 kmh 30.02 in1016.6 mb 0.00 in0.0 mm 0.00 in0.0 mm 0.00 in0.0 mm
09:30 PM 66.6°F19.2°C 60.9°F16.1°C 82% 5.4 mph SW8.7 kmh SW 8.3 mph13.4 kmh 30.02 in1016.6 mb 0.00 in0.0 mm 0.00 in0.0 mm 0.00 in0.0 mm
09:45 PM 66.6°F19.2°C 60.9°F16.1°C 82% 6.0 mph SW9.7 kmh SW 9.8 mph15.8 kmh 30.02 in1016.6 mb 0.00 in0.0 mm 0.00 in0.0 mm 0.00 in0.0 mm
10:00 PM 66.6°F19.2°C 60.9°F16.1°C 82% 5.4 mph WSW8.7 kmh WSW 9.8 mph15.8 kmh 30.02 in1016.6 mb 0.00 in0.0 mm 0.00 in0.0 mm 0.00 in0.0 mm
10:15 PM 66.6°F19.2°C 60.9°F16.1°C 82% 3.8 mph WSW6.1 kmh WSW 7.6 mph12.2 kmh 28.81 in975.6 mb 0.00 in0.0 mm 0.00 in0.0 mm 0.00 in0.0 mm
10:30 PM 66.4°F19.1°C 61.1°F16.2°C 83% 3.8 mph WSW6.1 kmh WSW 9.2 mph14.8 kmh 28.81 in975.6 mb 0.00 in0.0 mm 0.00 in0.0 mm 0.00 in0.0 mm
10:45 PM 66.4°F19.1°C 61.1°F16.2°C 83% 3.8 mph SW6.1 kmh SW 9.2 mph14.8 kmh 30.04 in1017.3 mb 0.00 in0.0 mm 0.00 in0.0 mm 0.00 in0.0 mm
11:00 PM 66.4°F19.1°C 61.1°F16.2°C 83% 6.0 mph WSW9.7 kmh WSW 8.3 mph13.4 kmh 28.81 in975.6 mb 0.00 in0.0 mm 0.00 in0.0 mm 0.00 in0.0 mm
11:15 PM 66.6°F19.2°C 61.3°F16.3°C 83% 3.1 mph W5.0 kmh W 8.3 mph13.4 kmh 28.81 in975.6 mb 0.00 in0.0 mm 0.00 in0.0 mm 0.00 in0.0 mm
11:30 PM 66.4°F19.1°C 61.1°F16.2°C 83% 5.4 mph WSW8.7 kmh WSW 7.6 mph12.2 kmh 30.03 in1016.9 mb 0.00 in0.0 mm 0.00 in0.0 mm 0.00 in0.0 mm
11:45 PM 66.4°F19.1°C 61.1°F16.2°C 83% 2.2 mph WSW3.5 kmh WSW 7.6 mph12.2 kmh 30.03 in1016.9 mb 0.00 in0.0 mm 0.00 in0.0 mm 0.00 in0.0 mm